createdAt,value
2023-05-13T00:00:49.714Z,26.00
2023-05-13T00:03:17.076Z,24.53
2023-05-13T00:05:45.659Z,26.17
2023-05-13T00:08:13.025Z,23.63
2023-05-13T00:10:40.186Z,27.10
2023-05-13T00:13:08.327Z,25.20
2023-05-13T00:15:35.461Z,32.03
2023-05-13T00:18:02.762Z,28.70
2023-05-13T00:20:30.036Z,25.47
2023-05-13T00:22:57.181Z,26.57
2023-05-13T00:25:24.350Z,29.70
2023-05-13T00:27:51.507Z,25.27
2023-05-13T00:30:19.096Z,28.40
2023-05-13T00:32:46.336Z,28.20
2023-05-13T00:35:13.872Z,30.60
2023-05-13T00:37:40.984Z,27.53
2023-05-13T00:40:13.802Z,30.43
2023-05-13T00:42:40.953Z,28.33
2023-05-13T00:45:08.290Z,29.27
2023-05-13T00:47:35.558Z,38.10
2023-05-13T00:50:03.221Z,30.43
2023-05-13T00:52:30.364Z,31.03
2023-05-13T00:54:57.506Z,33.17
2023-05-13T00:57:24.643Z,30.87
2023-05-13T00:59:52.045Z,31.57
2023-05-13T01:02:34.860Z,28.57
2023-05-13T01:05:34.627Z,32.37
2023-05-13T01:08:01.748Z,30.27
2023-05-13T01:11:04.294Z,29.57
2023-05-13T01:13:37.019Z,28.00
2023-05-13T01:16:13.629Z,31.60
2023-05-13T01:19:01.843Z,30.77
2023-05-13T01:21:29.679Z,31.17
2023-05-13T01:23:56.943Z,30.67
2023-05-13T01:26:25.364Z,31.23
2023-05-13T01:28:52.550Z,29.97
2023-05-13T01:31:20.131Z,28.17
2023-05-13T01:33:47.678Z,29.30
2023-05-13T01:36:14.957Z,29.87
2023-05-13T01:38:42.789Z,31.70
2023-05-13T01:41:10.075Z,32.13
2023-05-13T01:43:37.227Z,29.73
2023-05-13T01:46:04.565Z,30.70
2023-05-13T01:48:31.758Z,31.67
2023-05-13T01:50:59.011Z,31.50
2023-05-13T01:53:26.902Z,31.30
2023-05-13T01:55:54.029Z,27.67
2023-05-13T01:58:21.145Z,27.00
2023-05-13T02:00:48.236Z,26.30
2023-05-13T02:03:15.540Z,26.10
2023-05-13T02:05:42.759Z,28.17
2023-05-13T02:08:09.882Z,26.70
2023-05-13T02:10:36.986Z,27.17
2023-05-13T02:13:04.069Z,25.10
2023-05-13T02:15:31.246Z,26.30
2023-05-13T02:17:58.409Z,27.07
2023-05-13T02:20:26.449Z,29.00
2023-05-13T02:22:53.632Z,26.10
2023-05-13T02:25:21.012Z,27.90
2023-05-13T02:27:48.144Z,29.43
2023-05-13T02:30:16.000Z,33.13
2023-05-13T02:32:43.992Z,26.57
2023-05-13T02:35:11.255Z,28.23
2023-05-13T02:37:38.455Z,28.77
2023-05-13T02:40:05.855Z,25.33
2023-05-13T02:42:33.001Z,28.20
2023-05-13T02:45:00.162Z,28.53
2023-05-13T02:47:27.313Z,27.20
2023-05-13T02:49:55.794Z,29.93
2023-05-13T02:52:23.087Z,24.80
2023-05-13T02:54:50.425Z,27.83
2023-05-13T02:57:17.524Z,28.03
2023-05-13T02:59:44.632Z,24.90
2023-05-13T03:02:11.849Z,26.37
2023-05-13T03:04:41.193Z,30.37
2023-05-13T03:07:08.394Z,26.03
2023-05-13T03:09:39.061Z,27.90
2023-05-13T03:12:06.982Z,28.33
2023-05-13T03:14:37.234Z,29.93
2023-05-13T03:17:04.794Z,27.63
2023-05-13T03:19:31.905Z,29.53
2023-05-13T03:21:59.149Z,23.57
2023-05-13T03:24:26.273Z,22.70
2023-05-13T03:26:53.456Z,23.73
2023-05-13T03:29:20.567Z,26.67
2023-05-13T03:31:47.753Z,26.10
2023-05-13T03:34:15.116Z,25.60
2023-05-13T03:36:42.401Z,27.73
2023-05-13T03:39:10.471Z,25.27
2023-05-13T03:41:37.673Z,31.00
2023-05-13T03:44:04.902Z,29.00
2023-05-13T03:46:32.211Z,26.10
2023-05-13T03:48:59.386Z,25.23
2023-05-13T03:51:26.484Z,33.67
2023-05-13T03:53:53.629Z,30.43
2023-05-13T03:56:21.609Z,26.67
2023-05-13T03:58:48.870Z,24.93
2023-05-13T04:01:16.039Z,25.33
2023-05-13T04:03:45.396Z,27.17
2023-05-13T04:06:14.531Z,25.20
2023-05-13T04:08:41.993Z,26.97
2023-05-13T04:11:09.114Z,26.03
2023-05-13T04:13:36.585Z,24.07
2023-05-13T04:16:04.212Z,18.63
2023-05-13T04:18:31.850Z,18.30
2023-05-13T04:20:58.964Z,19.23
2023-05-13T04:23:26.151Z,16.17
2023-05-13T04:25:53.341Z,13.13
2023-05-13T04:28:20.926Z,13.57
2023-05-13T04:30:48.073Z,13.80
2023-05-13T04:33:15.355Z,11.40
2023-05-13T04:35:42.527Z,13.13
2023-05-13T04:38:09.761Z,11.03
2023-05-13T04:40:36.872Z,10.87
2023-05-13T04:43:04.062Z,9.27
2023-05-13T04:45:31.863Z,10.93
2023-05-13T04:47:59.141Z,7.50
2023-05-13T04:50:26.382Z,8.77
2023-05-13T04:52:54.968Z,7.20
2023-05-13T04:55:22.847Z,10.50
2023-05-13T04:57:50.116Z,8.27
2023-05-13T05:00:17.402Z,8.53
2023-05-13T05:02:44.577Z,9.27
2023-05-13T05:05:11.733Z,9.13
2023-05-13T05:07:40.492Z,10.07
2023-05-13T05:10:08.625Z,8.03
2023-05-13T05:12:36.310Z,8.88
2023-05-13T05:15:03.430Z,8.95
2023-05-13T05:17:32.927Z,7.40
2023-05-13T05:20:00.167Z,10.65
2023-05-13T05:22:27.693Z,12.50
2023-05-13T05:24:54.831Z,8.38
2023-05-13T05:27:21.965Z,12.18
2023-05-13T05:29:49.093Z,6.93
2023-05-13T05:32:16.181Z,10.93
2023-05-13T05:34:43.453Z,13.95
2023-05-13T05:37:10.579Z,11.63
2023-05-13T05:39:38.571Z,14.05
2023-05-13T05:42:05.853Z,7.75
2023-05-13T05:44:32.982Z,8.98
2023-05-13T05:47:00.142Z,7.18
2023-05-13T05:49:27.395Z,9.10
2023-05-13T05:51:54.476Z,7.90
2023-05-13T05:54:21.574Z,10.05
2023-05-13T05:56:48.686Z,8.07
2023-05-13T05:59:15.826Z,10.88
2023-05-13T06:01:42.948Z,10.07
2023-05-13T06:04:10.098Z,8.60
2023-05-13T06:06:37.776Z,10.95
2023-05-13T06:09:05.021Z,8.38
2023-05-13T06:11:32.213Z,6.65
2023-05-13T06:13:59.611Z,7.57
2023-05-13T06:16:26.856Z,9.15
2023-05-13T06:18:54.117Z,8.82
2023-05-13T06:21:21.317Z,8.77
2023-05-13T06:23:48.434Z,8.15
2023-05-13T06:26:15.645Z,5.63
2023-05-13T06:28:42.810Z,8.40
2023-05-13T06:31:09.995Z,7.20
2023-05-13T06:33:37.310Z,6.53
2023-05-13T06:36:04.643Z,8.57
2023-05-13T06:38:31.813Z,6.40
2023-05-13T06:40:58.882Z,6.25
2023-05-13T06:43:26.167Z,10.20
2023-05-13T06:45:53.347Z,7.40
2023-05-13T06:48:20.530Z,6.32
2023-05-13T06:50:49.734Z,8.80
2023-05-13T06:53:16.827Z,6.90
2023-05-13T06:55:43.987Z,7.78
2023-05-13T06:58:11.323Z,5.38
2023-05-13T07:00:39.348Z,6.30
2023-05-13T07:03:07.052Z,5.90
2023-05-13T07:05:34.674Z,5.10
2023-05-13T07:08:06.615Z,6.13
2023-05-13T07:10:34.267Z,4.47
2023-05-13T07:13:04.261Z,6.93
2023-05-13T07:15:31.397Z,6.43
2023-05-13T07:17:58.544Z,7.13
2023-05-13T07:20:26.654Z,7.15
2023-05-13T07:22:53.990Z,4.95
2023-05-13T07:25:21.241Z,5.50
2023-05-13T07:27:48.421Z,9.25
2023-05-13T07:30:15.690Z,6.07
2023-05-13T07:32:42.877Z,5.80
2023-05-13T07:35:10.519Z,5.32
2023-05-13T07:37:37.666Z,4.45
2023-05-13T07:40:06.334Z,5.15
2023-05-13T07:42:33.528Z,7.55
2023-05-13T07:45:00.659Z,4.75
2023-05-13T07:47:29.069Z,4.95
2023-05-13T07:49:56.410Z,5.38
2023-05-13T07:52:23.526Z,7.25
2023-05-13T07:54:50.742Z,4.80
2023-05-13T07:57:18.607Z,5.20
2023-05-13T07:59:45.779Z,7.22
2023-05-13T08:02:13.174Z,5.05
2023-05-13T08:04:40.373Z,6.28
2023-05-13T08:07:07.696Z,6.45
2023-05-13T08:09:34.813Z,5.70
2023-05-13T08:12:01.982Z,5.70
2023-05-13T08:14:29.450Z,6.47
2023-05-13T08:16:56.753Z,6.05
2023-05-13T08:19:23.882Z,4.80
2023-05-13T08:21:51.278Z,5.38
2023-05-13T08:24:18.377Z,7.10
2023-05-13T08:26:45.481Z,6.95
2023-05-13T08:29:15.531Z,6.85
2023-05-13T08:31:42.841Z,6.90
2023-05-13T08:34:10.042Z,5.68
2023-05-13T08:36:37.230Z,5.88
2023-05-13T08:39:04.405Z,6.05
2023-05-13T08:41:31.913Z,5.20
2023-05-13T08:43:59.486Z,4.85
2023-05-13T08:46:29.020Z,6.68
2023-05-13T08:48:56.479Z,7.32
2023-05-13T08:51:23.779Z,7.70
2023-05-13T08:53:53.164Z,7.20
2023-05-13T08:56:22.242Z,4.22
2023-05-13T08:58:49.445Z,5.85
2023-05-13T09:01:17.073Z,6.18
2023-05-13T09:03:53.614Z,5.03
2023-05-13T09:06:21.005Z,6.90
2023-05-13T09:08:48.134Z,5.55
2023-05-13T09:11:15.703Z,7.65
2023-05-13T09:13:44.660Z,11.20
2023-05-13T09:16:14.271Z,10.45
2023-05-13T09:18:42.814Z,6.47
2023-05-13T09:21:23.848Z,7.63
2023-05-13T09:23:51.190Z,6.13
2023-05-13T09:26:28.633Z,7.90
2023-05-13T09:29:14.286Z,5.93
2023-05-13T09:31:41.566Z,7.18
2023-05-13T09:34:08.793Z,9.13
2023-05-13T09:36:35.966Z,10.52
2023-05-13T09:39:04.127Z,7.55
2023-05-13T09:41:31.918Z,6.72
2023-05-13T09:43:59.657Z,7.13
2023-05-13T09:46:26.893Z,6.30
2023-05-13T09:48:57.267Z,5.93
2023-05-13T09:51:27.548Z,6.80
2023-05-13T09:53:55.724Z,7.35
2023-05-13T09:56:24.146Z,6.65
2023-05-13T09:58:54.366Z,8.93
2023-05-13T10:01:22.312Z,6.18
2023-05-13T10:03:49.636Z,6.60
2023-05-13T10:06:22.354Z,8.07
2023-05-13T10:08:52.003Z,6.30
2023-05-13T10:11:19.750Z,6.00
2023-05-13T10:14:10.113Z,7.70
2023-05-13T10:16:37.714Z,6.63
2023-05-13T10:19:05.643Z,12.02
2023-05-13T10:21:32.987Z,7.20
2023-05-13T10:24:00.281Z,8.55
2023-05-13T10:26:27.898Z,9.57
2023-05-13T10:28:55.577Z,6.05
2023-05-13T10:31:22.726Z,6.60
2023-05-13T10:33:49.960Z,7.90
2023-05-13T10:36:26.034Z,6.35
2023-05-13T10:39:05.244Z,7.63
2023-05-13T10:41:38.267Z,5.88
2023-05-13T10:44:07.231Z,8.88
2023-05-13T10:46:39.342Z,6.93
2023-05-13T10:49:06.994Z,7.13
2023-05-13T10:51:34.181Z,8.35
2023-05-13T10:54:01.287Z,7.00
2023-05-13T10:56:29.048Z,8.18
2023-05-13T10:59:03.630Z,8.77
2023-05-13T11:01:32.103Z,7.88
2023-05-13T11:04:03.302Z,7.38
2023-05-13T11:06:37.521Z,7.80
2023-05-13T11:09:08.827Z,6.38
2023-05-13T11:11:36.905Z,7.70
2023-05-13T11:14:17.129Z,5.53
2023-05-13T11:16:53.764Z,6.03
2023-05-13T11:19:23.724Z,7.10
2023-05-13T11:21:53.016Z,7.15
2023-05-13T11:24:21.897Z,7.95
2023-05-13T11:26:52.125Z,5.07
2023-05-13T11:29:31.564Z,7.93
2023-05-13T11:32:00.859Z,5.38
2023-05-13T11:34:28.621Z,5.25
2023-05-13T11:37:05.081Z,6.68
2023-05-13T11:39:33.057Z,6.07
2023-05-13T11:42:01.893Z,4.72
2023-05-13T11:44:29.305Z,5.40
2023-05-13T11:46:57.402Z,7.00
2023-05-13T11:49:30.728Z,5.82
2023-05-13T11:51:59.111Z,5.80
2023-05-13T11:54:26.595Z,4.55
2023-05-13T11:56:53.754Z,7.05
2023-05-13T11:59:20.930Z,6.68
2023-05-13T12:01:58.762Z,7.15
2023-05-13T12:04:28.840Z,6.70
2023-05-13T12:06:56.003Z,6.88
2023-05-13T12:09:23.669Z,8.60
2023-05-13T12:11:52.705Z,7.15
2023-05-13T12:14:20.898Z,6.15
2023-05-13T12:16:48.619Z,8.30
2023-05-13T12:19:15.944Z,6.63
2023-05-13T12:21:43.149Z,8.70
2023-05-13T12:24:20.160Z,6.88
2023-05-13T12:26:47.345Z,5.50
2023-05-13T12:29:14.627Z,7.72
2023-05-13T12:31:43.416Z,10.48
2023-05-13T12:34:10.895Z,11.30
2023-05-13T12:36:39.126Z,7.72
2023-05-13T12:39:09.763Z,7.50
2023-05-13T12:41:41.377Z,21.70
2023-05-13T12:44:09.575Z,9.07
2023-05-13T12:46:37.015Z,7.88
2023-05-13T12:49:05.011Z,10.30
2023-05-13T12:51:35.359Z,8.23
2023-05-13T12:54:02.554Z,6.38
2023-05-13T12:56:29.745Z,6.45
2023-05-13T12:58:57.089Z,7.47
2023-05-13T13:01:24.375Z,5.80
2023-05-13T13:03:51.651Z,5.47
2023-05-13T13:06:18.826Z,6.90
2023-05-13T13:08:46.017Z,8.07
2023-05-13T13:11:18.852Z,4.53
2023-05-13T13:13:46.704Z,5.82
2023-05-13T13:16:14.173Z,9.65
2023-05-13T13:18:41.737Z,6.00
2023-05-13T13:21:09.217Z,8.20
2023-05-13T13:23:36.337Z,5.38
2023-05-13T13:26:03.859Z,6.60
2023-05-13T13:28:31.756Z,10.10
2023-05-13T13:30:59.954Z,6.53
2023-05-13T13:33:27.178Z,6.07
2023-05-13T13:35:54.368Z,7.10
2023-05-13T13:38:21.490Z,6.90
2023-05-13T13:40:48.592Z,5.07
2023-05-13T13:43:15.738Z,5.65
2023-05-13T13:45:42.968Z,5.45
2023-05-13T13:48:10.242Z,7.40
2023-05-13T13:50:37.507Z,4.85
2023-05-13T13:53:04.618Z,9.02
2023-05-13T13:55:31.807Z,8.50
2023-05-13T13:57:59.243Z,4.85
2023-05-13T14:00:26.364Z,7.57
2023-05-13T14:02:53.707Z,7.18
2023-05-13T14:05:21.194Z,5.82
2023-05-13T14:07:49.548Z,3.75
2023-05-13T14:10:16.911Z,6.43
2023-05-13T14:12:44.062Z,6.28
2023-05-13T14:15:11.405Z,5.47
2023-05-13T14:17:38.593Z,4.60
2023-05-13T14:20:06.492Z,3.67
2023-05-13T14:22:33.709Z,4.72
2023-05-13T14:25:01.312Z,5.25
2023-05-13T14:27:28.485Z,3.55
2023-05-13T14:29:55.662Z,19.05
2023-05-13T14:32:22.781Z,7.77
2023-05-13T14:34:50.012Z,7.05
2023-05-13T14:37:17.156Z,6.93
2023-05-13T14:39:44.328Z,7.05
2023-05-13T14:42:11.647Z,7.15
2023-05-13T14:44:41.292Z,7.97
2023-05-13T14:47:09.436Z,8.68
2023-05-13T14:49:36.566Z,7.50
2023-05-13T14:52:03.788Z,6.70
2023-05-13T14:54:35.536Z,7.15
2023-05-13T14:57:03.470Z,6.95
2023-05-13T14:59:30.667Z,10.73
2023-05-13T15:01:57.858Z,6.67
2023-05-13T15:04:24.994Z,7.15
2023-05-13T15:06:52.211Z,10.23
2023-05-13T15:09:19.707Z,7.20
2023-05-13T15:11:46.892Z,7.82
2023-05-13T15:14:17.754Z,7.65
2023-05-13T15:16:45.254Z,6.45
2023-05-13T15:19:12.448Z,7.90
2023-05-13T15:21:39.636Z,7.72
2023-05-13T15:24:06.935Z,7.97
2023-05-13T15:26:34.115Z,9.40
2023-05-13T15:29:01.293Z,8.50
2023-05-13T15:31:28.432Z,6.55
2023-05-13T15:33:55.630Z,9.48
2023-05-13T15:36:22.882Z,9.82
2023-05-13T15:38:50.311Z,7.03
2023-05-13T15:41:17.429Z,7.03
2023-05-13T15:43:44.643Z,6.43
2023-05-13T15:46:11.776Z,6.57
2023-05-13T15:48:38.970Z,8.98
2023-05-13T15:51:06.887Z,7.10
2023-05-13T15:53:34.057Z,10.02
2023-05-13T15:56:01.221Z,5.30
2023-05-13T15:58:28.358Z,5.60
2023-05-13T16:00:55.899Z,7.97
2023-05-13T16:03:24.120Z,8.35
2023-05-13T16:05:51.442Z,5.65
2023-05-13T16:08:19.079Z,7.47
2023-05-13T16:10:46.352Z,6.00
2023-05-13T16:13:13.688Z,7.00
2023-05-13T16:15:40.829Z,4.88
2023-05-13T16:18:08.658Z,6.65
2023-05-13T16:20:35.813Z,8.40
2023-05-13T16:23:02.991Z,6.07
2023-05-13T16:25:30.155Z,6.90
2023-05-13T16:27:57.280Z,6.90
2023-05-13T16:30:24.566Z,6.63
2023-05-13T16:32:54.752Z,5.93
2023-05-13T16:35:22.431Z,8.47
2023-05-13T16:37:50.017Z,4.37
2023-05-13T16:40:17.305Z,6.80
2023-05-13T16:42:44.481Z,3.07
2023-05-13T16:45:11.834Z,3.37
2023-05-13T16:47:39.395Z,3.00
2023-05-13T16:50:08.490Z,3.60
2023-05-13T16:52:35.773Z,5.03
2023-05-13T16:55:03.137Z,3.23
2023-05-13T16:57:30.491Z,3.13
2023-05-13T16:59:57.681Z,5.00
2023-05-13T17:02:24.945Z,4.00
2023-05-13T17:04:52.260Z,6.57
2023-05-13T17:07:19.716Z,3.30
2023-05-13T17:09:46.843Z,5.57
2023-05-13T17:12:14.039Z,7.27
2023-05-13T17:14:41.278Z,4.60
2023-05-13T17:17:08.509Z,3.40
2023-05-13T17:19:35.693Z,2.60
2023-05-13T17:22:02.884Z,5.40
2023-05-13T17:24:30.043Z,3.87
2023-05-13T17:26:57.334Z,2.83
2023-05-13T17:29:25.789Z,3.67
2023-05-13T17:31:53.247Z,3.80
2023-05-13T17:34:20.696Z,4.40
2023-05-13T17:36:50.004Z,2.50
2023-05-13T17:39:17.425Z,3.27
2023-05-13T17:41:44.570Z,4.47
2023-05-13T17:44:11.768Z,2.87
2023-05-13T17:46:39.122Z,5.90
2023-05-13T17:49:06.616Z,3.67
2023-05-13T17:51:33.789Z,3.43
2023-05-13T17:54:00.885Z,3.47
2023-05-13T17:56:27.965Z,4.37
2023-05-13T17:58:55.082Z,4.30
2023-05-13T18:01:22.260Z,3.83
2023-05-13T18:03:49.414Z,3.73
2023-05-13T18:06:16.662Z,5.33
2023-05-13T18:08:43.992Z,5.13
2023-05-13T18:11:11.094Z,3.70
2023-05-13T18:13:38.249Z,4.30
2023-05-13T18:16:06.136Z,5.73
2023-05-13T18:18:33.414Z,4.50
2023-05-13T18:21:00.729Z,4.93
2023-05-13T18:23:27.885Z,5.37
2023-05-13T18:25:56.211Z,6.03
2023-05-13T18:28:23.703Z,4.03
2023-05-13T18:30:50.911Z,5.27
2023-05-13T18:33:20.748Z,5.23
2023-05-13T18:35:47.949Z,4.77
2023-05-13T18:38:15.083Z,6.37
2023-05-13T18:40:42.288Z,4.60
2023-05-13T18:43:09.400Z,4.20
2023-05-13T18:45:36.632Z,6.00
2023-05-13T18:48:04.355Z,5.50
2023-05-13T18:50:31.567Z,5.67
2023-05-13T18:52:58.667Z,4.70
2023-05-13T18:55:25.807Z,4.60
2023-05-13T18:57:52.887Z,4.17
2023-05-13T19:00:20.239Z,3.63
2023-05-13T19:02:47.672Z,4.43
2023-05-13T19:05:15.015Z,4.17
2023-05-13T19:07:42.140Z,4.40
2023-05-13T19:10:09.317Z,5.00
2023-05-13T19:12:36.434Z,4.33
2023-05-13T19:15:03.662Z,3.60
2023-05-13T19:17:31.170Z,4.23
2023-05-13T19:20:00.313Z,5.73
2023-05-13T19:22:27.577Z,4.07
2023-05-13T19:24:54.773Z,5.03
2023-05-13T19:27:22.057Z,5.23
2023-05-13T19:29:49.450Z,8.77
2023-05-13T19:32:16.743Z,5.90
2023-05-13T19:34:43.868Z,6.17
2023-05-13T19:37:11.012Z,4.50
2023-05-13T19:39:38.117Z,4.67
2023-05-13T19:42:05.343Z,5.43
2023-05-13T19:44:33.924Z,5.87
2023-05-13T19:47:01.264Z,5.57
2023-05-13T19:49:28.466Z,6.10
2023-05-13T19:51:55.626Z,4.97
2023-05-13T19:54:22.710Z,6.87
2023-05-13T19:56:49.879Z,5.67
2023-05-13T19:59:16.989Z,6.60
2023-05-13T20:01:44.275Z,5.50
2023-05-13T20:04:11.537Z,6.90
2023-05-13T20:06:38.783Z,7.07
2023-05-13T20:09:06.026Z,5.80
2023-05-13T20:11:33.193Z,5.90
2023-05-13T20:14:00.345Z,6.53
2023-05-13T20:16:27.523Z,5.87
2023-05-13T20:18:54.695Z,6.60
2023-05-13T20:21:21.835Z,6.80
2023-05-13T20:23:48.960Z,6.43
2023-05-13T20:26:16.142Z,6.00
2023-05-13T20:28:45.083Z,6.40
2023-05-13T20:31:12.318Z,6.07
2023-05-13T20:33:39.516Z,7.50
2023-05-13T20:36:06.785Z,7.43
2023-05-13T20:38:33.952Z,8.07
2023-05-13T20:41:01.100Z,8.10
2023-05-13T20:43:28.260Z,6.50
2023-05-13T20:45:55.522Z,7.33
2023-05-13T20:48:22.664Z,7.03
2023-05-13T20:50:49.784Z,7.77
2023-05-13T20:53:16.987Z,7.13
2023-05-13T20:55:44.060Z,7.30
2023-05-13T20:58:12.185Z,8.87
2023-05-13T21:00:39.326Z,8.37
2023-05-13T21:03:06.672Z,9.80
2023-05-13T21:05:33.907Z,10.37
2023-05-13T21:08:01.193Z,8.23
2023-05-13T21:10:28.309Z,7.80
2023-05-13T21:12:55.439Z,8.90
2023-05-13T21:15:22.601Z,7.73
2023-05-13T21:17:49.747Z,9.63
2023-05-13T21:20:16.904Z,8.93
2023-05-13T21:22:44.040Z,7.37
2023-05-13T21:25:11.336Z,8.17
2023-05-13T21:27:38.766Z,9.13
2023-05-13T21:30:06.430Z,7.23
2023-05-13T21:32:33.638Z,11.17
2023-05-13T21:35:01.016Z,8.27
2023-05-13T21:37:28.137Z,8.80
2023-05-13T21:39:55.301Z,7.97
2023-05-13T21:42:23.042Z,8.70
2023-05-13T21:44:50.263Z,8.70
2023-05-13T21:47:17.374Z,8.60
2023-05-13T21:49:44.525Z,9.60
2023-05-13T21:52:11.761Z,10.53
2023-05-13T21:54:39.362Z,8.47
2023-05-13T21:57:06.524Z,9.93
2023-05-13T21:59:33.825Z,8.70
2023-05-13T22:02:01.004Z,9.07
2023-05-13T22:04:28.109Z,8.77
2023-05-13T22:06:55.245Z,9.60
2023-05-13T22:09:22.357Z,9.43
2023-05-13T22:11:49.594Z,9.23
2023-05-13T22:14:16.873Z,10.10
2023-05-13T22:16:46.368Z,15.00
2023-05-13T22:19:16.229Z,10.70
2023-05-13T22:21:43.373Z,11.17
2023-05-13T22:24:10.566Z,10.43
2023-05-13T22:26:37.715Z,10.30
2023-05-13T22:29:04.996Z,8.90
2023-05-13T22:31:32.148Z,12.23
2023-05-13T22:33:59.335Z,12.30
2023-05-13T22:36:26.454Z,13.73
2023-05-13T22:38:53.604Z,9.83
2023-05-13T22:41:23.623Z,9.77
2023-05-13T22:43:51.070Z,11.57
2023-05-13T22:46:18.261Z,11.73
2023-05-13T22:48:45.876Z,12.97
2023-05-13T22:51:13.643Z,12.67
2023-05-13T22:53:40.834Z,13.13
2023-05-13T22:56:08.138Z,11.80
2023-05-13T22:58:35.660Z,12.67
2023-05-13T23:01:02.772Z,12.57
2023-05-13T23:03:29.895Z,11.67
2023-05-13T23:05:57.158Z,10.70
2023-05-13T23:08:24.279Z,11.20
2023-05-13T23:10:51.438Z,12.63
2023-05-13T23:13:18.680Z,17.43
2023-05-13T23:15:45.868Z,13.47
2023-05-13T23:18:13.176Z,10.70
2023-05-13T23:20:40.456Z,15.07
2023-05-13T23:23:07.594Z,11.60
2023-05-13T23:25:34.700Z,13.40
2023-05-13T23:28:01.805Z,12.97
2023-05-13T23:30:28.916Z,11.97
2023-05-13T23:32:56.158Z,11.43
2023-05-13T23:35:23.334Z,10.87
2023-05-13T23:37:50.455Z,12.03
2023-05-13T23:40:17.621Z,9.73
2023-05-13T23:42:44.740Z,11.93
2023-05-13T23:45:11.988Z,15.20
2023-05-13T23:47:39.185Z,14.57
2023-05-13T23:50:06.743Z,13.87
2023-05-13T23:52:34.045Z,11.97
2023-05-13T23:55:03.435Z,12.87
2023-05-13T23:57:30.978Z,11.87
2023-05-13T23:59:58.073Z,12.00
